Time;durP1;ratioP1;P1;durP2;ratioP2;P2;SDS_P1;SDS_P2;PMS_P1;PMS_P2;Temp;Humidity;BMP_temperature;BMP_pressure;BME280_temperature;BME280_humidity;BME280_pressure;Samples;Min_cycle;Max_cycle;Signal;HPM_P1;HPM_P2
2022/06/06 00:00:11;;;;;;;8.88;5.22;;;;;;;12.27;93.65;94181.88;5110239;28;20040;-51
2022/06/06 00:02:38;;;;;;;9.65;5.53;;;;;;;12.25;93.99;94179.56;5110580;28;20416;-51
2022/06/06 00:05:06;;;;;;;8.27;5.43;;;;;;;12.24;94.02;94180.75;5110177;28;20039;-52
2022/06/06 00:07:32;;;;;;;8.50;5.90;;;;;;;12.09;96.00;94179.44;5092757;28;20043;-49
2022/06/06 00:09:59;;;;;;;11.85;7.32;;;;;;;12.15;95.91;94186.00;5110138;28;20433;-51
2022/06/06 00:12:27;;;;;;;12.60;7.63;;;;;;;12.18;96.04;94183.22;5110280;28;20036;-50
2022/06/06 00:14:54;;;;;;;10.77;6.22;;;;;;;12.27;96.01;94179.91;5110282;28;20047;-47
2022/06/06 00:17:21;;;;;;;10.10;6.20;;;;;;;12.34;96.02;94177.03;5110527;28;20039;-47
2022/06/06 00:19:47;;;;;;;8.00;6.00;;;;;;;12.36;95.33;94171.13;5110854;28;20404;-48
2022/06/06 00:22:14;;;;;;;8.70;5.53;;;;;;;12.41;94.98;94172.59;5091773;28;20050;-50
2022/06/06 00:24:41;;;;;;;8.73;5.32;;;;;;;12.34;94.13;94163.28;5097345;28;20496;-48
2022/06/06 00:27:08;;;;;;;9.15;4.93;;;;;;;12.32;94.10;94165.69;5089637;28;20043;-46
2022/06/06 00:29:35;;;;;;;7.88;4.50;;;;;;;12.38;94.03;94171.47;5089778;28;20052;-48
2022/06/06 00:34:51;;;;;;;5.95;4.50;;;;;;;12.39;93.57;94164.75;5090038;28;20411;-49
2022/06/06 00:37:23;;;;;;;7.95;4.82;;;;;;;12.41;93.84;94159.63;5089482;28;20044;-49
2022/06/06 00:39:51;;;;;;;7.72;4.78;;;;;;;12.33;93.52;94156.22;5089927;28;20392;-47
2022/06/06 00:42:22;;;;;;;17.13;9.65;;;;;;;12.33;93.25;94150.72;5088844;28;20399;-57
2022/06/06 00:45:18;;;;;;;19.17;13.33;;;;;;;12.22;93.46;94152.88;5072058;28;20044;-49
2022/06/06 00:48:15;;;;;;;9.00;5.82;;;;;;;12.25;93.12;94145.75;5088989;28;20044;-48
2022/06/06 00:50:59;;;;;;;10.82;5.35;;;;;;;12.25;93.23;94154.00;5088701;28;20598;-53
2022/06/06 00:53:32;;;;;;;8.27;5.60;;;;;;;12.28;93.80;94148.47;5097037;28;20407;-54
2022/06/06 00:56:06;;;;;;;10.70;6.35;;;;;;;12.28;94.33;94150.44;5109883;28;20062;-50
2022/06/06 00:58:35;;;;;;;14.63;7.03;;;;;;;12.36;94.24;94144.38;5091910;28;20117;-53
2022/06/06 01:01:03;;;;;;;14.02;6.55;;;;;;;12.42;94.52;94146.66;5091472;28;20047;-54
2022/06/06 01:03:30;;;;;;;17.40;10.70;;;;;;;12.40;94.44;94144.31;5091681;28;20042;-51
2022/06/06 01:05:59;;;;;;;20.85;11.73;;;;;;;12.26;94.47;94155.59;5109725;28;20426;-46
2022/06/06 01:08:27;;;;;;;23.30;8.40;;;;;;;12.12;95.17;94149.13;5110111;28;20044;-47
2022/06/06 01:10:53;;;;;;;13.37;6.53;;;;;;;12.19;95.21;94148.22;5109434;28;20040;-47
2022/06/06 01:13:24;;;;;;;24.98;7.28;;;;;;;12.09;95.91;94160.19;5109802;28;20048;-49
2022/06/06 01:16:13;;;;;;;33.90;8.13;;;;;;;12.11;96.76;94153.09;5110088;28;20420;-54
2022/06/06 01:18:45;;;;;;;14.98;6.90;;;;;;;11.89;96.85;94151.88;5108847;28;20198;-51
2022/06/06 01:21:44;;;;;;;25.98;7.25;;;;;;;11.95;96.96;94145.50;5109389;28;20173;-55
2022/06/06 01:24:29;;;;;;;33.87;7.67;;;;;;;12.11;96.89;94150.34;5084593;28;20051;-46
2022/06/06 01:27:04;;;;;;;18.52;7.55;;;;;;;12.18;96.90;94141.16;5089248;28;20044;-54
2022/06/06 01:29:36;;;;;;;15.52;7.40;;;;;;;12.18;96.63;94141.94;5089674;28;20039;-51
2022/06/06 01:32:08;;;;;;;16.90;7.20;;;;;;;12.30;96.52;94135.06;5088853;28;20414;-47
2022/06/06 01:34:38;;;;;;;12.00;7.72;;;;;;;12.31;96.70;94131.09;5089416;28;20044;-50
2022/06/06 01:37:30;;;;;;;10.53;7.20;;;;;;;12.34;96.02;94127.50;5088747;28;20488;-47
2022/06/06 01:39:59;;;;;;;11.43;7.30;;;;;;;12.32;96.23;94127.16;5088824;28;20044;-47
2022/06/06 01:42:55;;;;;;;14.00;7.80;;;;;;;12.24;95.94;94119.47;5089261;28;20036;-50
2022/06/06 01:45:33;;;;;;;11.98;7.90;;;;;;;12.26;96.34;94112.31;5088274;28;20737;-48
2022/06/06 01:48:08;;;;;;;12.90;7.07;;;;;;;12.38;95.45;94105.44;5088868;28;20052;-52
2022/06/06 01:50:37;;;;;;;14.17;8.23;;;;;;;12.17;95.51;94101.09;5089316;28;20036;-49
2022/06/06 01:53:07;;;;;;;11.95;8.15;;;;;;;11.90;98.22;94096.47;5093643;28;20048;-50
2022/06/06 01:55:37;;;;;;;11.73;8.02;;;;;;;12.06;96.49;94103.28;5112481;28;20039;-52
2022/06/06 01:58:08;;;;;;;11.48;7.68;;;;;;;12.07;95.61;94097.31;5094642;28;20491;-49
2022/06/06 02:00:37;;;;;;;10.63;7.20;;;;;;;12.06;95.47;94098.53;5113006;28;20061;-47
2022/06/06 02:03:04;;;;;;;54.70;30.40;;;;;;;12.05;95.58;94099.72;5094582;28;20096;-47
2022/06/06 02:05:31;;;;;;;17.70;9.35;;;;;;;11.88;97.03;94095.31;5112984;28;20040;-47
2022/06/06 02:07:58;;;;;;;126.22;10.88;;;;;;;11.66;98.92;94103.13;5112695;28;20049;-46
2022/06/06 02:10:25;;;;;;;48.13;8.10;;;;;;;11.81;98.62;94101.69;5094475;28;20047;-46
2022/06/06 02:12:53;;;;;;;31.08;8.90;;;;;;;11.80;98.87;94100.91;5094823;28;20435;-47
2022/06/06 02:15:23;;;;;;;18.33;8.50;;;;;;;11.87;98.95;94097.28;5111865;28;20043;-51
2022/06/06 02:17:51;;;;;;;33.70;9.38;;;;;;;11.97;98.62;94099.09;5113024;28;20035;-46
2022/06/06 02:20:20;;;;;;;14.65;8.23;;;;;;;11.99;98.08;94104.16;5112361;28;20092;-49
2022/06/06 02:22:47;;;;;;;14.27;8.50;;;;;;;12.02;97.82;94094.31;5112336;28;20039;-47
2022/06/06 02:25:14;;;;;;;20.42;8.50;;;;;;;12.06;97.53;94095.78;5094707;28;20466;-51
2022/06/06 02:27:42;;;;;;;85.70;10.03;;;;;;;12.11;97.04;94092.56;5092166;28;20043;-48
2022/06/06 02:30:16;;;;;;;26.77;8.65;;;;;;;12.15;97.27;94090.53;5091713;28;20523;-48
2022/06/06 02:32:43;;;;;;;22.30;7.95;;;;;;;12.19;97.19;94090.44;5091771;28;20389;-46
2022/06/06 02:35:17;;;;;;;16.63;7.47;;;;;;;12.15;96.62;94089.72;5091774;28;20048;-46
2022/06/06 02:37:44;;;;;;;16.50;7.55;;;;;;;12.20;96.83;94081.00;5091932;28;20403;-46
2022/06/06 02:40:13;;;;;;;10.73;6.93;;;;;;;12.24;96.62;94075.44;5073590;28;20052;-52
2022/06/06 02:42:39;;;;;;;22.40;6.97;;;;;;;12.24;96.01;94076.19;5091769;28;20046;-51
2022/06/06 02:45:09;;;;;;;20.13;7.18;;;;;;;12.25;95.71;94079.72;5091462;28;20070;-47
2022/06/06 02:47:37;;;;;;;11.45;6.85;;;;;;;12.23;95.77;94074.63;5091742;28;20419;-46
2022/06/06 02:50:06;;;;;;;47.75;7.97;;;;;;;12.07;96.34;94071.81;5091237;28;20048;-51
2022/06/06 02:52:33;;;;;;;12.13;7.67;;;;;;;11.96;97.66;94072.00;5092128;28;20044;-47
2022/06/06 02:55:02;;;;;;;30.73;8.50;;;;;;;12.05;97.37;94066.72;5111433;28;20136;-47
2022/06/06 02:57:29;;;;;;;56.65;8.48;;;;;;;12.10;97.19;94071.75;5112000;28;20040;-52
2022/06/06 03:00:00;;;;;;;143.88;9.75;;;;;;;12.11;97.64;94070.56;5111873;28;20050;-46
2022/06/06 03:02:27;;;;;;;19.08;7.95;;;;;;;12.11;97.21;94067.00;5093565;28;20070;-48
2022/06/06 03:04:54;;;;;;;15.60;7.60;;;;;;;12.12;97.70;94069.34;5110082;28;20441;-53
2022/06/06 03:07:54;;;;;;;55.42;8.55;;;;;;;12.12;97.82;94072.09;5093876;28;20050;-49
2022/06/06 03:10:43;;;;;;;224.30;11.80;;;;;;;11.78;99.27;94070.31;5106741;28;20605;-50
2022/06/06 03:13:42;;;;;;;71.30;10.40;;;;;;;11.89;100.00;94074.88;5111408;28;20039;-47
2022/06/06 03:22:35;;;;;;;35.47;8.70;;;;;;;12.01;99.55;94079.00;5097172;28;20047;-46
2022/06/06 03:25:16;;;;;;;68.32;9.73;;;;;;;11.96;99.84;94075.53;5094625;28;20051;-52
2022/06/06 03:28:21;;;;;;;79.30;9.65;;;;;;;12.00;99.49;94078.22;5091055;28;20036;-48
2022/06/06 03:31:03;;;;;;;22.25;7.88;;;;;;;11.99;99.43;94085.69;5090150;28;20052;-52
2022/06/06 03:33:54;;;;;;;116.40;8.57;;;;;;;12.01;99.20;94084.50;5071911;28;20740;-47
2022/06/06 03:36:38;;;;;;;31.77;8.18;;;;;;;12.01;99.46;94088.00;5090296;28;20837;-52
2022/06/06 03:39:28;;;;;;;145.38;9.52;;;;;;;11.95;99.70;94086.94;5090637;28;20484;-51
2022/06/06 03:42:13;;;;;;;43.55;7.80;;;;;;;11.96;99.65;94091.25;5072379;28;20485;-51
2022/06/06 03:44:58;;;;;;;47.55;6.93;;;;;;;11.96;99.23;94091.25;5090593;28;20040;-48
2022/06/06 03:47:46;;;;;;;23.37;6.70;;;;;;;11.97;98.93;94095.53;5071856;28;20612;-48
2022/06/06 03:50:29;;;;;;;83.28;7.75;;;;;;;11.86;98.76;94101.22;5072308;28;20052;-52
2022/06/06 03:53:05;;;;;;;40.65;7.97;;;;;;;11.84;99.37;94100.09;5094109;28;20039;-52
2022/06/06 03:56:02;;;;;;;26.55;7.82;;;;;;;11.87;99.44;94096.50;5110936;28;20060;-49
2022/06/06 03:58:31;;;;;;;37.08;8.30;;;;;;;11.91;99.82;94102.72;5091977;28;20040;-57
2022/06/06 04:01:07;;;;;;;57.37;8.40;;;;;;;11.95;100.00;94100.69;5110342;28;20097;-53
2022/06/06 04:03:36;;;;;;;27.90;7.97;;;;;;;12.09;100.00;94110.66;5110775;28;20054;-50
2022/06/06 04:06:04;;;;;;;22.75;7.13;;;;;;;12.11;99.98;94108.28;5110354;28;20119;-48
2022/06/06 04:08:32;;;;;;;48.38;7.43;;;;;;;12.04;99.45;94105.66;5110727;28;20054;-53
2022/06/06 04:11:22;;;;;;;65.05;8.23;;;;;;;11.75;100.00;94109.66;5110569;28;20454;-50
2022/06/06 04:14:06;;;;;;;60.90;8.77;;;;;;;11.88;100.00;94107.06;5110588;28;20042;-47
2022/06/06 04:17:16;;;;;;;119.65;10.25;;;;;;;12.05;100.00;94102.47;5108862;28;21814;-49
2022/06/06 04:19:54;;;;;;;132.65;9.88;;;;;;;12.27;100.00;94102.84;5098772;28;21647;-50
2022/06/06 04:22:24;;;;;;;58.05;8.10;;;;;;;12.46;100.00;94108.81;5109475;28;21527;-49
2022/06/06 04:25:10;;;;;;;59.45;14.52;;;;;;;12.55;99.52;94106.25;5095705;28;20442;-49
2022/06/06 04:28:08;;;;;;;51.63;8.37;;;;;;;12.70;99.78;94099.28;5089144;28;20042;-47
2022/06/06 04:30:55;;;;;;;57.33;8.95;;;;;;;12.41;98.28;94101.03;5067601;28;20405;-48
2022/06/06 04:33:34;;;;;;;52.60;8.32;;;;;;;12.38;100.00;94097.16;5089204;28;20110;-56
2022/06/06 04:36:20;;;;;;;38.95;8.30;;;;;;;12.42;100.00;94102.63;5089629;28;20054;-55
2022/06/06 04:39:08;;;;;;;52.85;9.77;;;;;;;12.46;99.40;94104.09;5089820;28;20044;-52
2022/06/06 04:41:49;;;;;;;61.50;9.07;;;;;;;12.70;100.00;94104.78;5088949;28;20173;-55
2022/06/06 04:44:22;;;;;;;50.30;9.20;;;;;;;12.92;99.49;94091.34;5089634;28;20114;-52
2022/06/06 04:47:06;;;;;;;31.20;9.43;;;;;;;13.19;97.76;94096.66;5089830;28;20054;-52
2022/06/06 04:49:34;;;;;;;24.75;7.97;;;;;;;13.16;96.30;94094.75;5088864;28;20716;-50
2022/06/06 04:52:03;;;;;;;17.40;7.88;;;;;;;13.28;95.45;94098.84;5089088;28;20101;-53
2022/06/06 04:54:31;;;;;;;32.83;8.10;;;;;;;13.49;95.05;94094.06;5088817;28;20067;-52
2022/06/06 04:57:00;;;;;;;40.63;7.63;;;;;;;13.54;92.44;94097.06;5109596;28;20089;-53
2022/06/06 04:59:29;;;;;;;39.88;7.95;;;;;;;13.45;93.66;94102.41;5110498;28;20039;-52
2022/06/06 05:01:59;;;;;;;94.28;8.65;;;;;;;13.46;93.77;94106.72;5090525;28;20499;-51
2022/06/06 05:04:26;;;;;;;93.78;9.55;;;;;;;13.59;94.20;94104.06;5078701;28;20069;-50
2022/06/06 05:07:11;;;;;;;37.83;8.40;;;;;;;13.72;94.04;94106.88;5110650;28;20493;-50
2022/06/06 05:09:45;;;;;;;44.58;9.05;;;;;;;13.89;92.69;94099.41;5100894;28;20040;-56
2022/06/06 05:12:24;;;;;;;57.15;8.80;;;;;;;13.88;92.15;94106.88;5089765;28;20047;-55
2022/06/06 05:15:39;;;;;;;42.42;7.97;;;;;;;13.84;89.81;94108.94;5089561;28;20046;-54
2022/06/06 05:18:24;;;;;;;38.78;8.15;;;;;;;13.96;91.41;94111.03;5083070;28;20775;-49
2022/06/06 05:21:35;;;;;;;31.20;7.93;;;;;;;13.90;91.47;94121.00;5089366;28;20044;-53
2022/06/06 05:24:16;;;;;;;39.88;7.88;;;;;;;14.13;90.33;94124.81;5055443;28;20062;-53
2022/06/06 05:27:04;;;;;;;21.45;7.57;;;;;;;14.35;90.80;94120.28;5069201;28;20043;-49
2022/06/06 05:29:43;;;;;;;19.90;7.18;;;;;;;14.84;88.98;94130.41;5071645;28;20186;-53
2022/06/06 05:32:16;;;;;;;26.83;8.00;;;;;;;14.74;88.26;94135.03;5072831;28;20076;-50
2022/06/06 05:35:20;;;;;;;22.07;7.43;;;;;;;14.90;86.82;94120.38;5072976;28;20048;-51
2022/06/06 05:38:05;;;;;;;14.73;7.80;;;;;;;14.90;87.04;94133.41;5072087;28;20052;-55
2022/06/06 05:40:57;;;;;;;18.80;7.43;;;;;;;15.07;84.46;94142.41;5072418;28;20615;-52
2022/06/06 05:43:27;;;;;;;11.10;6.78;;;;;;;14.92;85.49;94126.25;5072375;28;20052;-49
2022/06/06 05:46:05;;;;;;;23.45;7.60;;;;;;;14.97;84.66;94136.00;5072801;28;20039;-46
2022/06/06 05:48:37;;;;;;;20.50;7.60;;;;;;;14.90;85.77;94136.19;5072260;28;21384;-47
2022/06/06 05:51:04;;;;;;;12.82;7.43;;;;;;;14.84;86.43;94140.69;5072522;28;20044;-51
2022/06/06 05:53:46;;;;;;;54.25;9.05;;;;;;;15.00;85.28;94143.38;5072888;28;20067;-53
2022/06/06 05:56:34;;;;;;;43.70;8.60;;;;;;;15.14;85.70;94144.97;5072404;28;20400;-48
2022/06/06 05:59:10;;;;;;;19.10;7.00;;;;;;;15.26;84.72;94144.22;5072423;28;20507;-51
2022/06/06 06:01:57;;;;;;;26.80;7.73;;;;;;;15.31;84.72;94148.41;5072505;28;20067;-56
2022/06/06 06:04:46;;;;;;;15.32;7.50;;;;;;;15.26;84.31;94151.75;5071817;28;21663;-51
2022/06/06 06:07:19;;;;;;;9.50;7.00;;;;;;;15.49;83.75;94147.88;5071951;28;20053;-48
2022/06/06 06:09:58;;;;;;;15.45;7.45;;;;;;;15.89;81.86;94142.69;5072189;28;20041;-53
2022/06/06 06:12:45;;;;;;;20.25;8.05;;;;;;;16.01;81.16;94141.13;5071495;28;20672;-52
2022/06/06 06:15:15;;;;;;;11.17;7.50;;;;;;;15.82;81.55;94153.25;5071917;28;20044;-51
2022/06/06 06:17:44;;;;;;;9.73;6.97;;;;;;;15.84;81.24;94151.56;5072357;28;20397;-55
2022/06/06 06:20:14;;;;;;;10.52;7.28;;;;;;;16.76;78.24;94146.91;5072043;28;20048;-52
2022/06/06 06:23:06;;;;;;;8.82;6.93;;;;;;;19.42;69.98;94138.25;5090539;28;20048;-53
2022/06/06 06:25:35;;;;;;;9.23;6.35;;;;;;;21.94;60.37;94143.94;5084165;28;20036;-53
2022/06/06 06:28:11;;;;;;;7.80;5.83;;;;;;;23.81;53.97;94138.59;5091581;28;20044;-49
2022/06/06 06:30:48;;;;;;;7.45;5.40;;;;;;;23.81;53.02;94144.19;5092484;28;20039;-56
2022/06/06 06:33:36;;;;;;;6.13;5.15;;;;;;;23.52;52.56;94143.13;5090750;28;20044;-53
2022/06/06 06:36:38;;;;;;;5.38;4.60;;;;;;;22.01;56.74;94145.56;5091290;28;20042;-48
2022/06/06 06:39:14;;;;;;;7.07;5.00;;;;;;;21.37;59.08;94153.38;5073673;28;20050;-51
2022/06/06 06:42:09;;;;;;;6.07;4.90;;;;;;;22.40;56.44;94153.78;5091287;28;20040;-51
2022/06/06 06:44:44;;;;;;;7.25;5.70;;;;;;;22.27;55.98;94154.09;5091293;28;20730;-47
2022/06/06 06:47:18;;;;;;;6.72;5.60;;;;;;;22.49;55.76;94162.03;5091794;28;20040;-52
2022/06/06 06:49:55;;;;;;;6.75;4.20;;;;;;;24.36;49.14;94159.09;5091903;28;20058;-52
2022/06/06 06:52:53;;;;;;;6.05;3.95;;;;;;;28.59;40.89;94164.16;5091121;28;20522;-52
2022/06/06 06:55:35;;;;;;;4.53;3.00;;;;;;;30.59;34.57;94156.84;5091147;28;21849;-52
2022/06/06 06:58:11;;;;;;;4.20;2.53;;;;;;;30.76;33.98;94159.34;5091015;28;20044;-53
2022/06/06 07:00:52;;;;;;;4.05;3.00;;;;;;;31.13;32.45;94157.63;5091575;28;20046;-52
2022/06/06 07:09:42;;;;;;;3.80;2.47;;;;;;;28.56;34.85;94163.16;5090681;28;20447;-48
2022/06/06 07:12:31;;;;;;;5.00;2.45;;;;;;;28.54;34.31;94174.22;5090887;28;20058;-50
2022/06/06 07:15:12;;;;;;;4.13;2.40;;;;;;;31.12;31.06;94159.69;5090604;28;20054;-51
2022/06/06 07:17:48;;;;;;;3.88;2.30;;;;;;;30.97;30.69;94162.31;5073151;28;20382;-49
2022/06/06 07:20:17;;;;;;;4.15;2.55;;;;;;;30.69;30.54;94160.78;5090972;28;20044;-52
2022/06/06 07:23:05;;;;;;;3.77;2.40;;;;;;;30.49;30.27;94164.97;5090859;28;20455;-54
2022/06/06 07:25:37;;;;;;;4.07;2.25;;;;;;;31.88;27.90;94164.06;5110631;28;20399;-50
2022/06/06 07:28:06;;;;;;;3.65;2.45;;;;;;;30.84;29.48;94168.72;5110635;28;20391;-53
2022/06/06 07:30:38;;;;;;;4.20;2.13;;;;;;;32.21;27.25;94160.44;5111531;28;20040;-53
2022/06/06 07:33:32;;;;;;;4.47;2.15;;;;;;;32.21;27.62;94160.44;5110820;28;20043;-50
2022/06/06 07:36:14;;;;;;;3.83;2.00;;;;;;;34.75;24.45;94169.47;5110847;28;20046;-51
2022/06/06 07:39:06;;;;;;;4.55;2.55;;;;;;;32.20;27.18;94158.16;5111487;28;20415;-54
2022/06/06 07:41:48;;;;;;;4.13;2.10;;;;;;;31.95;27.30;94154.84;5110516;28;20057;-48
2022/06/06 07:44:21;;;;;;;3.40;2.03;;;;;;;31.60;28.08;94159.78;5110896;28;20372;-55
2022/06/06 07:47:00;;;;;;;3.70;2.20;;;;;;;30.60;29.56;94147.78;5110812;28;20036;-53
2022/06/06 07:49:39;;;;;;;3.93;2.43;;;;;;;29.18;31.21;94156.84;5110278;28;21629;-50
2022/06/06 07:52:22;;;;;;;19.60;16.05;;;;;;;28.28;31.19;94155.69;5109437;28;20484;-49
2022/06/06 07:54:49;;;;;;;8.73;6.53;;;;;;;29.60;30.60;94156.53;5090774;28;20387;-53
2022/06/06 07:57:32;;;;;;;5.05;2.58;;;;;;;30.66;28.36;94148.44;5089986;28;20040;-51
2022/06/06 08:00:12;;;;;;;4.82;2.20;;;;;;;28.75;31.29;94149.09;5089804;28;20044;-51
2022/06/06 08:02:47;;;;;;;4.33;2.20;;;;;;;26.60;34.95;94148.91;5090672;28;20036;-50
2022/06/06 08:05:42;;;;;;;3.60;2.15;;;;;;;26.41;35.31;94152.25;5090370;28;20404;-51
2022/06/06 08:08:25;;;;;;;4.57;2.42;;;;;;;26.83;35.06;94149.63;5089736;28;20085;-50
2022/06/06 08:10:51;;;;;;;5.05;2.70;;;;;;;26.76;34.89;94153.72;5090302;28;20442;-48
2022/06/06 08:13:27;;;;;;;6.13;3.40;;;;;;;27.00;34.84;94146.72;5089304;28;20690;-47
2022/06/06 08:16:30;;;;;;;4.10;2.90;;;;;;;28.47;32.38;94155.78;5090149;28;20043;-48
2022/06/06 08:19:11;;;;;;;3.60;1.95;;;;;;;29.97;30.43;94150.09;5088623;28;20048;-50
2022/06/06 08:21:40;;;;;;;3.90;2.30;;;;;;;29.36;30.72;94141.22;5089948;28;20038;-48
2022/06/06 08:24:14;;;;;;;4.30;2.80;;;;;;;28.04;32.77;94138.72;5097346;28;20052;-52
2022/06/06 08:27:04;;;;;;;10.13;7.20;;;;;;;27.10;35.14;94140.31;5109649;28;20405;-53
2022/06/06 08:29:34;;;;;;;10.70;6.97;;;;;;;25.39;38.39;94136.63;5092406;28;20058;-52
2022/06/06 08:32:02;;;;;;;4.72;2.90;;;;;;;25.95;37.15;94139.50;5096700;28;20067;-51
2022/06/06 08:34:28;;;;;;;5.50;4.10;;;;;;;24.37;40.59;94138.97;5090267;28;20043;-54
2022/06/06 08:37:25;;;;;;;5.63;3.47;;;;;;;25.69;38.75;94134.09;5089254;28;20044;-49
2022/06/06 08:40:32;;;;;;;4.70;2.83;;;;;;;27.28;35.49;94133.31;5090071;28;20044;-52
2022/06/06 08:43:46;;;;;;;4.50;2.70;;;;;;;26.13;36.68;94134.66;5087978;28;20138;-57
2022/06/06 08:46:32;;;;;;;5.38;3.40;;;;;;;25.67;38.03;94131.03;5089403;28;20056;-47
2022/06/06 08:49:10;;;;;;;5.13;3.15;;;;;;;25.87;38.19;94130.03;5071078;28;20040;-52
2022/06/06 08:51:52;;;;;;;5.25;3.55;;;;;;;24.70;40.53;94132.78;5089936;28;20499;-51
2022/06/06 08:54:57;;;;;;;5.38;2.83;;;;;;;25.43;39.44;94126.66;5086811;28;20036;-51
2022/06/06 08:57:53;;;;;;;6.53;3.10;;;;;;;25.71;38.08;94128.75;5091465;28;20534;-55
2022/06/06 09:00:38;;;;;;;9.50;6.65;;;;;;;25.30;39.66;94129.97;5108990;28;20395;-49
2022/06/06 09:03:30;;;;;;;4.65;3.60;;;;;;;25.42;39.28;94127.19;5110515;28;20048;-52
2022/06/06 09:05:58;;;;;;;4.65;2.55;;;;;;;25.10;38.11;94128.09;5095291;28;20042;-53
2022/06/06 09:08:58;;;;;;;5.25;3.00;;;;;;;24.10;40.67;94120.69;5114085;28;20036;-55
2022/06/06 09:11:52;;;;;;;5.07;2.60;;;;;;;24.18;41.11;94123.81;5113334;28;20277;-49
2022/06/06 09:14:38;;;;;;;5.07;2.70;;;;;;;24.99;39.69;94113.25;5113148;28;20609;-51
2022/06/06 09:17:23;;;;;;;5.13;2.63;;;;;;;25.83;38.85;94124.66;5113432;28;20403;-51
2022/06/06 09:19:56;;;;;;;4.80;2.72;;;;;;;24.95;40.71;94118.34;5113965;28;20065;-51
2022/06/06 09:22:29;;;;;;;3.70;2.95;;;;;;;26.11;38.19;94107.03;5112693;28;20725;-50
2022/06/06 09:24:59;;;;;;;4.03;2.50;;;;;;;26.25;38.61;94105.97;5098101;28;20042;-56
2022/06/06 09:27:55;;;;;;;4.95;2.38;;;;;;;26.54;37.30;94108.72;5093757;28;20040;-51
2022/06/06 09:30:21;;;;;;;4.18;2.60;;;;;;;26.36;37.84;94105.22;5063186;28;20201;-52
2022/06/06 09:33:28;;;;;;;3.45;2.50;;;;;;;24.84;40.97;94105.81;5093481;28;20051;-52
2022/06/06 09:36:23;;;;;;;3.88;2.60;;;;;;;24.32;40.61;94106.81;5091846;28;21118;-49
2022/06/06 09:39:05;;;;;;;5.10;2.80;;;;;;;24.08;41.54;94100.81;5093209;28;20401;-60
2022/06/06 09:42:07;;;;;;;4.72;2.65;;;;;;;25.00;40.27;94098.72;5092296;28;20044;-56
2022/06/06 09:44:46;;;;;;;5.32;3.00;;;;;;;24.92;40.24;94097.66;5049308;28;20040;-50
2022/06/06 09:47:35;;;;;;;4.82;2.60;;;;;;;25.44;38.28;94107.78;5092487;28;20044;-50
2022/06/06 09:50:11;;;;;;;5.38;2.80;;;;;;;25.17;38.88;94109.97;5091856;28;20403;-54
2022/06/06 09:53:15;;;;;;;4.83;2.90;;;;;;;25.24;39.43;94114.38;5076384;28;20044;-47
2022/06/06 09:59:25;;;;;;;3.67;2.50;;;;;;;26.36;36.05;94108.03;5112516;28;20042;-50
2022/06/06 10:02:28;;;;;;;5.35;2.70;;;;;;;26.05;35.73;94100.66;5112064;28;20732;-53
2022/06/06 10:04:55;;;;;;;5.20;2.42;;;;;;;26.41;35.99;94106.47;5111575;28;21543;-51
2022/06/06 10:07:55;;;;;;;3.97;2.77;;;;;;;25.59;37.56;94113.16;5113280;28;20378;-55
2022/06/06 10:10:31;;;;;;;3.45;2.45;;;;;;;27.06;35.59;94105.22;5112392;28;20569;-48
2022/06/06 10:13:04;;;;;;;3.60;2.58;;;;;;;27.95;33.80;94102.38;5112228;28;20039;-49
2022/06/06 10:15:36;;;;;;;4.90;2.70;;;;;;;27.75;33.86;94093.03;5093844;28;20044;-52
2022/06/06 10:18:35;;;;;;;4.65;2.58;;;;;;;27.92;34.23;94087.28;5112221;28;20051;-53
2022/06/06 10:21:27;;;;;;;4.23;2.87;;;;;;;26.77;34.53;94087.69;5111927;28;20044;-49
2022/06/06 10:24:40;;;;;;;4.40;3.10;;;;;;;26.37;36.28;94084.22;5106192;28;20044;-56
2022/06/06 10:27:28;;;;;;;4.55;2.60;;;;;;;25.60;36.37;94086.59;5090585;28;20670;-54
2022/06/06 10:30:12;;;;;;;3.78;2.38;;;;;;;23.99;40.01;94101.00;5091683;28;20420;-53
2022/06/06 10:33:16;;;;;;;4.18;2.53;;;;;;;25.73;37.86;94083.25;5092361;28;20137;-50
2022/06/06 10:35:55;;;;;;;5.83;4.17;;;;;;;25.90;37.00;94084.06;5091186;28;20062;-48
2022/06/06 10:38:50;;;;;;;5.25;3.90;;;;;;;26.78;35.52;94077.94;5091382;28;20044;-48
2022/06/06 10:41:25;;;;;;;4.43;3.10;;;;;;;26.03;35.67;94080.72;5091638;28;20050;-48
2022/06/06 10:43:58;;;;;;;3.60;2.35;;;;;;;26.18;35.99;94077.59;5092034;28;20400;-53
2022/06/06 10:46:48;;;;;;;3.55;2.35;;;;;;;26.43;35.35;94078.59;5091089;28;21622;-51
2022/06/06 10:49:32;;;;;;;3.50;2.50;;;;;;;24.94;36.69;94075.47;5091434;28;20044;-49
2022/06/06 10:52:22;;;;;;;4.38;2.50;;;;;;;25.88;36.24;94078.16;5091029;28;20488;-52
2022/06/06 10:55:10;;;;;;;4.82;2.60;;;;;;;26.36;37.35;94068.63;5070777;28;20040;-50
2022/06/06 10:57:48;;;;;;;3.53;2.30;;;;;;;26.58;36.26;94075.47;5111308;28;20754;-55
2022/06/06 11:01:06;;;;;;;4.38;2.60;;;;;;;26.20;36.17;94066.59;5111615;28;20043;-50
2022/06/06 11:03:55;;;;;;;3.40;2.40;;;;;;;24.86;37.85;94074.44;5066001;28;20669;-49
2022/06/06 11:06:36;;;;;;;3.88;2.30;;;;;;;25.66;36.77;94071.25;5110058;28;20825;-51
2022/06/06 11:09:23;;;;;;;3.63;2.28;;;;;;;26.20;35.58;94070.19;5111487;28;20054;-50
2022/06/06 11:12:17;;;;;;;3.47;2.25;;;;;;;25.10;37.36;94071.94;5093847;28;20046;-51
2022/06/06 11:14:44;;;;;;;3.97;2.20;;;;;;;24.86;37.20;94066.00;5111178;28;20396;-52
2022/06/06 11:17:18;;;;;;;5.23;2.87;;;;;;;24.21;37.87;94067.50;5111155;28;20039;-50
2022/06/06 11:20:24;;;;;;;3.60;2.35;;;;;;;24.77;37.98;94060.59;5111682;28;20046;-53
2022/06/06 11:23:21;;;;;;;3.67;2.38;;;;;;;25.28;36.84;94045.44;5110508;28;20058;-53
2022/06/06 11:26:06;;;;;;;3.45;2.30;;;;;;;25.67;35.58;94053.09;5090099;28;20058;-53
2022/06/06 11:29:14;;;;;;;4.47;2.50;;;;;;;25.47;36.16;94050.56;5090379;28;20044;-53
2022/06/06 11:31:44;;;;;;;3.20;2.07;;;;;;;26.00;35.23;94048.75;5083748;28;21739;-52
2022/06/06 11:34:37;;;;;;;4.07;2.17;;;;;;;26.43;34.31;94034.31;5090156;28;20097;-50
2022/06/06 11:37:13;;;;;;;3.83;2.30;;;;;;;26.36;35.14;94034.06;5090351;28;20408;-55
2022/06/06 11:39:59;;;;;;;3.65;2.20;;;;;;;26.38;35.36;94043.56;5091123;28;20445;-50
2022/06/06 11:42:47;;;;;;;3.65;2.30;;;;;;;26.63;34.71;94044.50;5089803;28;20790;-54
2022/06/06 11:45:40;;;;;;;4.60;2.40;;;;;;;25.70;36.38;94031.66;5090362;28;20055;-55
2022/06/06 11:48:34;;;;;;;4.45;2.30;;;;;;;27.05;34.74;94028.41;5090288;28;20070;-48
2022/06/06 11:51:03;;;;;;;4.68;2.38;;;;;;;27.72;32.20;94023.59;5089866;28;20074;-54
2022/06/06 11:53:42;;;;;;;3.97;2.15;;;;;;;27.81;31.89;94022.47;5099388;28;20036;-48
2022/06/06 11:56:15;;;;;;;4.22;2.40;;;;;;;26.99;32.90;94021.28;5110297;28;20399;-48
2022/06/06 11:59:06;;;;;;;4.17;2.50;;;;;;;24.89;36.87;94014.44;5111128;28;20039;-52
2022/06/06 12:01:46;;;;;;;4.15;2.80;;;;;;;24.29;38.67;94009.66;5109987;28;20862;-50
2022/06/06 12:04:51;;;;;;;3.40;2.50;;;;;;;24.24;39.56;94016.00;5110164;28;20075;-55
2022/06/06 12:07:50;;;;;;;4.63;2.53;;;;;;;25.07;37.41;93999.94;5110001;28;20040;-51
2022/06/06 12:10:26;;;;;;;4.15;2.67;;;;;;;24.95;37.55;93995.59;5110229;28;20671;-52
2022/06/06 12:12:59;;;;;;;4.00;2.70;;;;;;;23.98;39.96;93993.69;5110794;28;20043;-56
2022/06/06 12:15:54;;;;;;;3.97;2.70;;;;;;;24.02;39.63;93991.44;5109669;28;20191;-56
2022/06/06 12:18:49;;;;;;;4.47;2.70;;;;;;;23.60;40.00;93992.16;5100902;28;20038;-51
2022/06/06 12:21:43;;;;;;;4.40;2.45;;;;;;;24.54;38.81;93986.81;5109755;28;20058;-51
2022/06/06 12:24:31;;;;;;;5.05;2.80;;;;;;;24.32;39.87;93988.25;5101012;28;20370;-51
2022/06/06 12:27:14;;;;;;;4.00;2.70;;;;;;;24.19;39.16;93982.34;5089811;28;20058;-56
2022/06/06 12:29:59;;;;;;;4.45;2.50;;;;;;;23.83;39.66;93987.53;5090063;28;20137;-51
2022/06/06 12:32:48;;;;;;;5.68;2.90;;;;;;;23.52;40.78;93977.84;5070959;28;20048;-52
2022/06/06 12:35:21;;;;;;;4.63;2.70;;;;;;;24.08;40.34;93969.78;5088941;28;20745;-55
2022/06/06 12:37:56;;;;;;;3.63;2.70;;;;;;;24.43;39.07;93973.50;5089428;28;20036;-51
2022/06/06 12:40:32;;;;;;;4.43;2.50;;;;;;;24.21;39.12;93974.97;5089168;28;21512;-49
2022/06/06 12:43:16;;;;;;;4.22;2.50;;;;;;;24.40;37.66;93966.84;5089392;28;20090;-54
2022/06/06 12:46:14;;;;;;;3.80;2.72;;;;;;;25.02;37.98;93961.38;5072314;28;20048;-56
2022/06/06 12:49:11;;;;;;;4.68;2.53;;;;;;;24.62;38.90;93962.63;5089134;28;20036;-53